createdAt,value
2019-01-24T00:02:00.109Z,26.93
2019-01-24T00:04:30.286Z,26.77
2019-01-24T00:07:00.873Z,29.33
2019-01-24T00:09:31.045Z,28.87
2019-01-24T00:12:01.272Z,25.40
2019-01-24T00:14:31.423Z,25.37
2019-01-24T00:17:01.669Z,27.00
2019-01-24T00:19:32.396Z,28.43
2019-01-24T00:24:49.024Z,28.47
2019-01-24T00:27:19.261Z,25.07
2019-01-24T00:29:49.739Z,28.93
2019-01-24T00:32:19.944Z,28.53
2019-01-24T00:34:50.157Z,27.20
2019-01-24T00:37:20.359Z,28.00
2019-01-24T00:39:50.631Z,26.67
2019-01-24T00:42:20.819Z,26.30
2019-01-24T00:44:51.407Z,26.23
2019-01-24T00:47:21.761Z,27.57
2019-01-24T00:49:51.935Z,27.10
2019-01-24T00:52:22.438Z,25.40
2019-01-24T00:54:52.659Z,26.30
2019-01-24T00:57:23.208Z,31.07
2019-01-24T00:59:53.374Z,30.00
2019-01-24T01:02:23.974Z,28.60
2019-01-24T01:04:54.229Z,28.80
2019-01-24T01:07:24.367Z,29.37
2019-01-24T01:09:54.519Z,30.67
2019-01-24T01:12:25.188Z,29.30
2019-01-24T01:14:55.760Z,32.13
2019-01-24T01:17:26.007Z,29.67
2019-01-24T01:19:56.598Z,29.37
2019-01-24T01:22:27.178Z,29.83
2019-01-24T01:24:57.538Z,26.20
2019-01-24T01:27:27.891Z,27.67
2019-01-24T01:29:58.158Z,27.57
2019-01-24T01:32:28.930Z,26.30
2019-01-24T01:34:59.254Z,30.63
2019-01-24T01:37:29.459Z,29.50
2019-01-24T01:39:59.663Z,29.37
2019-01-24T01:42:29.922Z,28.80
2019-01-24T01:45:00.193Z,28.03
2019-01-24T01:47:30.746Z,26.57
2019-01-24T01:50:01.286Z,26.30
2019-01-24T01:52:31.583Z,25.07
2019-01-24T01:55:01.797Z,25.73
2019-01-24T01:57:32.739Z,26.93
2019-01-24T02:00:03.705Z,28.07
2019-01-24T02:02:33.995Z,30.70
2019-01-24T02:05:05.319Z,27.77
2019-01-24T02:07:35.567Z,29.67
2019-01-24T02:10:09.103Z,28.23
2019-01-24T02:12:39.332Z,29.63
2019-01-24T02:15:10.405Z,28.57
2019-01-24T02:17:40.659Z,28.60
2019-01-24T02:20:14.405Z,25.97
2019-01-24T02:22:45.205Z,26.83
2019-01-24T02:25:16.321Z,28.57
2019-01-24T02:27:46.558Z,28.33
2019-01-24T02:30:25.501Z,27.67
2019-01-24T02:32:55.797Z,28.70
2019-01-24T02:35:26.322Z,29.20
2019-01-24T02:37:56.667Z,28.73
2019-01-24T02:40:27.048Z,29.60
2019-01-24T02:42:57.597Z,29.00
2019-01-24T02:45:27.809Z,31.97
2019-01-24T02:47:58.458Z,30.70
2019-01-24T02:50:28.740Z,30.77
2019-01-24T02:52:59.005Z,31.27
2019-01-24T02:55:30.805Z,28.17
2019-01-24T02:58:01.002Z,28.43
2019-01-24T03:00:31.245Z,30.27
2019-01-24T03:03:01.477Z,30.27
2019-01-24T03:05:31.680Z,33.40
2019-01-24T03:08:01.933Z,32.00
2019-01-24T03:10:32.170Z,31.53
2019-01-24T03:13:03.397Z,33.93
2019-01-24T03:15:33.897Z,33.13
2019-01-24T03:18:04.265Z,35.90
2019-01-24T03:20:34.478Z,35.57
2019-01-24T03:23:04.677Z,32.20
2019-01-24T03:25:35.227Z,29.80
2019-01-24T03:28:05.938Z,33.23
2019-01-24T03:30:36.195Z,31.00
2019-01-24T03:33:06.424Z,31.90
2019-01-24T03:35:36.953Z,29.63
2019-01-24T03:38:07.157Z,30.90
2019-01-24T03:40:37.545Z,30.90
2019-01-24T03:43:07.823Z,30.10
2019-01-24T03:45:38.454Z,30.07
2019-01-24T03:48:08.723Z,29.53
2019-01-24T03:50:38.937Z,32.37
2019-01-24T03:53:09.153Z,32.67
2019-01-24T03:55:39.643Z,31.20
2019-01-24T03:58:09.893Z,31.07
2019-01-24T04:00:40.394Z,29.63
2019-01-24T04:03:11.266Z,31.43
2019-01-24T04:05:42.009Z,32.80
2019-01-24T04:08:12.207Z,32.37
2019-01-24T04:10:42.419Z,32.50
2019-01-24T04:13:12.651Z,33.50
2019-01-24T04:15:42.885Z,32.27
2019-01-24T04:18:13.827Z,32.77
2019-01-24T04:20:44.457Z,32.27
2019-01-24T04:23:14.660Z,32.83
2019-01-24T04:25:45.285Z,33.97
2019-01-24T04:28:15.508Z,35.43
2019-01-24T04:30:45.736Z,34.30
2019-01-24T04:33:15.975Z,35.80
2019-01-24T04:35:46.454Z,35.47
2019-01-24T04:38:17.510Z,34.70
2019-01-24T04:40:47.692Z,35.57
2019-01-24T04:43:18.260Z,34.57
2019-01-24T04:45:48.604Z,34.07
2019-01-24T04:48:19.435Z,34.33
2019-01-24T04:50:49.689Z,33.93
2019-01-24T04:53:19.889Z,33.80
2019-01-24T04:55:50.548Z,34.40
2019-01-24T04:58:20.778Z,32.80
2019-01-24T05:00:51.313Z,33.47
2019-01-24T05:03:21.823Z,35.20
2019-01-24T05:05:52.021Z,33.70
2019-01-24T05:08:22.263Z,33.60
2019-01-24T05:10:52.882Z,32.47
2019-01-24T05:13:23.109Z,34.23
2019-01-24T05:15:53.278Z,35.87
2019-01-24T05:18:23.539Z,34.53
2019-01-24T05:20:54.059Z,35.97
2019-01-24T05:23:24.575Z,34.60
2019-01-24T05:25:55.228Z,33.90
2019-01-24T05:28:25.506Z,34.47
2019-01-24T05:30:55.666Z,33.33
2019-01-24T05:33:26.153Z,34.23
2019-01-24T05:35:56.433Z,33.20
2019-01-24T05:38:27.310Z,33.67
2019-01-24T05:40:57.546Z,34.90
2019-01-24T05:43:27.779Z,34.90
2019-01-24T05:45:58.399Z,34.00
2019-01-24T05:48:29.053Z,33.10
2019-01-24T05:50:59.274Z,34.60
2019-01-24T05:53:29.877Z,34.10
2019-01-24T05:56:00.145Z,33.10
2019-01-24T05:58:30.380Z,29.87
2019-01-24T06:01:02.309Z,32.70
2019-01-24T06:03:32.737Z,32.30
2019-01-24T06:06:03.377Z,32.10
2019-01-24T06:08:33.602Z,29.50
2019-01-24T06:11:03.821Z,29.77
2019-01-24T06:13:34.046Z,29.03
2019-01-24T06:16:04.247Z,31.73
2019-01-24T06:18:34.485Z,31.07
2019-01-24T06:21:04.969Z,31.47
2019-01-24T06:23:35.215Z,31.80
2019-01-24T06:26:05.419Z,32.97
2019-01-24T06:28:36.118Z,33.43
2019-01-24T06:31:06.311Z,32.73
2019-01-24T06:33:36.883Z,34.20
2019-01-24T06:36:07.483Z,33.13
2019-01-24T06:38:37.738Z,32.90
2019-01-24T06:41:07.990Z,35.60
2019-01-24T06:43:38.373Z,36.33
2019-01-24T06:46:08.929Z,34.37
2019-01-24T06:48:39.955Z,35.47
2019-01-24T06:51:10.178Z,35.50
2019-01-24T06:53:40.697Z,35.00
2019-01-24T06:56:10.979Z,36.07
2019-01-24T06:58:41.305Z,35.03
2019-01-24T07:01:11.893Z,36.07
2019-01-24T07:03:42.227Z,33.73
2019-01-24T07:06:12.551Z,35.20
2019-01-24T07:08:43.119Z,34.50
2019-01-24T07:11:13.637Z,34.97
2019-01-24T07:13:43.947Z,35.37
2019-01-24T07:16:14.596Z,36.10
2019-01-24T07:18:45.270Z,36.03
2019-01-24T07:21:15.522Z,36.57
2019-01-24T07:23:45.795Z,36.30
2019-01-24T07:26:16.743Z,37.20
2019-01-24T07:28:47.094Z,37.80
2019-01-24T07:31:17.743Z,38.97
2019-01-24T07:33:48.337Z,41.10
2019-01-24T07:36:18.519Z,39.77
2019-01-24T07:38:48.710Z,39.30
2019-01-24T07:41:19.346Z,40.07
2019-01-24T07:43:49.567Z,40.17
2019-01-24T07:46:19.868Z,38.83
2019-01-24T07:48:50.009Z,36.73
2019-01-24T07:51:20.160Z,33.40
2019-01-24T07:53:51.108Z,35.43
2019-01-24T07:56:21.404Z,33.70
2019-01-24T07:58:51.662Z,33.67
2019-01-24T08:01:21.897Z,34.00
2019-01-24T08:03:52.540Z,35.40
2019-01-24T08:06:22.741Z,38.70
2019-01-24T08:08:53.643Z,36.53
2019-01-24T08:11:24.264Z,37.00
2019-01-24T08:13:54.809Z,37.53
2019-01-24T08:16:25.858Z,36.90
2019-01-24T08:18:56.560Z,36.00
2019-01-24T08:21:26.830Z,36.07
2019-01-24T08:23:57.934Z,34.43
2019-01-24T08:26:28.178Z,33.97
2019-01-24T08:28:58.350Z,34.63
2019-01-24T08:31:28.653Z,34.47
2019-01-24T08:33:59.993Z,36.50
2019-01-24T08:36:30.607Z,36.10
2019-01-24T08:39:00.899Z,36.47
2019-01-24T08:41:31.165Z,35.77
2019-01-24T08:44:01.409Z,36.23
2019-01-24T08:46:31.603Z,37.50
2019-01-24T08:49:02.156Z,35.67
2019-01-24T08:51:32.453Z,36.30
2019-01-24T08:54:02.726Z,34.63
2019-01-24T08:56:33.519Z,32.13
2019-01-24T08:59:04.055Z,36.27
2019-01-24T09:01:34.354Z,36.93
2019-01-24T09:04:04.581Z,35.90
2019-01-24T09:06:35.067Z,36.27
2019-01-24T09:09:09.445Z,34.77
2019-01-24T09:11:39.771Z,35.17
2019-01-24T09:14:10.357Z,34.77
2019-01-24T09:16:40.881Z,35.80
2019-01-24T09:19:11.127Z,38.50
2019-01-24T09:21:41.649Z,36.13
2019-01-24T09:24:11.882Z,36.00
2019-01-24T09:26:43.014Z,35.17
2019-01-24T09:29:13.706Z,34.80
2019-01-24T09:31:44.282Z,34.93
2019-01-24T09:34:14.499Z,33.60
2019-01-24T09:36:44.791Z,33.93
2019-01-24T09:39:15.001Z,34.67
2019-01-24T09:41:45.209Z,33.33
2019-01-24T09:44:15.388Z,33.57
2019-01-24T09:46:45.881Z,33.53
2019-01-24T09:49:16.003Z,32.97
2019-01-24T09:51:46.501Z,33.93
2019-01-24T09:54:16.761Z,33.97
2019-01-24T09:56:47.207Z,32.67
2019-01-24T09:59:17.316Z,33.27
2019-01-24T10:01:47.938Z,35.13
2019-01-24T10:04:18.128Z,37.50
2019-01-24T10:06:49.028Z,34.77
2019-01-24T10:09:19.154Z,34.47
2019-01-24T10:11:49.390Z,34.83
2019-01-24T10:14:19.662Z,34.23
2019-01-24T10:16:49.930Z,33.37
2019-01-24T10:19:20.178Z,31.57
2019-01-24T10:21:50.748Z,32.53
2019-01-24T10:24:20.914Z,33.17
2019-01-24T10:26:51.250Z,33.67
2019-01-24T10:29:21.528Z,32.87
2019-01-24T10:31:52.074Z,32.83
2019-01-24T10:34:22.398Z,31.87
2019-01-24T10:36:52.999Z,32.13
2019-01-24T10:39:23.154Z,34.50
2019-01-24T10:41:53.429Z,31.87
2019-01-24T10:44:23.674Z,34.93
2019-01-24T10:46:53.881Z,32.57
2019-01-24T10:49:24.566Z,34.30
2019-01-24T10:51:54.802Z,32.20
2019-01-24T10:54:25.525Z,31.40
2019-01-24T10:56:56.366Z,32.17
2019-01-24T10:59:26.633Z,33.07
2019-01-24T11:01:56.832Z,32.93
2019-01-24T11:04:27.068Z,33.37
2019-01-24T11:06:57.345Z,33.60
2019-01-24T11:09:27.878Z,32.85
2019-01-24T11:11:58.451Z,32.27
2019-01-24T11:14:28.711Z,32.20
2019-01-24T11:16:59.420Z,33.07
2019-01-24T11:19:29.699Z,33.33
2019-01-24T11:21:59.965Z,32.40
2019-01-24T11:24:30.620Z,33.37
2019-01-24T11:27:01.289Z,33.80
2019-01-24T11:29:31.497Z,33.13
2019-01-24T11:32:02.073Z,31.33
2019-01-24T11:34:33.143Z,32.60
2019-01-24T11:37:03.743Z,31.63
2019-01-24T11:39:34.687Z,31.40
2019-01-24T11:42:05.751Z,31.30
2019-01-24T11:44:36.394Z,30.63
2019-01-24T11:47:07.026Z,31.97
2019-01-24T11:49:37.224Z,33.40
2019-01-24T11:52:07.469Z,32.60
2019-01-24T11:54:37.708Z,30.83
2019-01-24T11:57:07.900Z,29.93
2019-01-24T11:59:38.140Z,32.83
2019-01-24T12:02:08.374Z,32.77
2019-01-24T12:04:39.010Z,32.53
2019-01-24T12:07:09.275Z,30.70
2019-01-24T12:09:39.494Z,30.73
2019-01-24T12:12:09.901Z,31.40
2019-01-24T12:14:40.171Z,31.23
2019-01-24T12:17:10.416Z,31.67
2019-01-24T12:19:40.706Z,30.57
2019-01-24T12:22:11.003Z,32.57
2019-01-24T12:24:41.698Z,32.03
2019-01-24T12:27:11.961Z,32.40
2019-01-24T12:29:42.344Z,32.80
2019-01-24T12:32:12.556Z,33.10
2019-01-24T12:34:43.113Z,35.37
2019-01-24T12:37:13.349Z,33.83
2019-01-24T12:39:43.655Z,32.60
2019-01-24T12:42:13.848Z,32.33
2019-01-24T12:44:44.564Z,33.40
2019-01-24T12:47:14.739Z,33.83
2019-01-24T12:49:45.400Z,33.00
2019-01-24T12:52:15.628Z,34.03
2019-01-24T12:54:46.191Z,33.10
2019-01-24T12:57:16.719Z,33.77
2019-01-24T12:59:46.976Z,34.20
2019-01-24T13:02:17.651Z,33.13
2019-01-24T13:04:47.936Z,35.33
2019-01-24T13:07:18.623Z,32.30
2019-01-24T13:09:49.290Z,35.27
2019-01-24T13:12:19.575Z,34.50
2019-01-24T13:14:49.805Z,35.27
2019-01-24T13:17:20.091Z,34.70
2019-01-24T13:19:50.581Z,32.63
2019-01-24T13:22:20.819Z,34.33
2019-01-24T13:24:51.064Z,36.07
2019-01-24T13:27:21.549Z,33.93
2019-01-24T13:29:51.799Z,34.17
2019-01-24T13:32:22.072Z,35.07
2019-01-24T13:34:52.369Z,35.60
2019-01-24T13:37:26.006Z,35.07
2019-01-24T13:39:54.779Z,35.83
2019-01-24T13:42:25.029Z,34.70
2019-01-24T13:44:55.310Z,35.23
2019-01-24T13:47:25.551Z,34.23
2019-01-24T13:49:55.903Z,34.57
2019-01-24T13:52:26.409Z,36.63
2019-01-24T13:54:56.639Z,32.70
2019-01-24T13:57:26.955Z,34.77
2019-01-24T13:59:57.855Z,34.50
2019-01-24T14:02:28.058Z,35.67
2019-01-24T14:04:58.483Z,36.27
2019-01-24T14:07:32.985Z,33.83
2019-01-24T14:10:00.664Z,36.20
2019-01-24T14:12:30.988Z,38.40
2019-01-24T14:15:01.502Z,35.37
2019-01-24T14:17:31.718Z,38.77
2019-01-24T14:20:01.935Z,37.70
2019-01-24T14:22:32.314Z,37.83
2019-01-24T14:25:02.515Z,36.97
2019-01-24T14:27:32.826Z,34.67
2019-01-24T14:30:03.132Z,34.03
2019-01-24T14:32:33.390Z,31.67
2019-01-24T14:35:04.012Z,31.80
2019-01-24T14:37:39.778Z,31.27
2019-01-24T14:40:07.286Z,31.80
2019-01-24T14:42:37.562Z,32.30
2019-01-24T14:45:10.740Z,33.93
2019-01-24T14:47:41.242Z,31.90
2019-01-24T14:50:14.993Z,34.20
2019-01-24T14:52:45.880Z,37.40
2019-01-24T14:55:16.224Z,34.57
2019-01-24T14:57:46.439Z,32.83
2019-01-24T15:00:35.335Z,33.60
2019-01-24T15:03:05.873Z,36.37
2019-01-24T15:05:36.215Z,33.50
2019-01-24T15:08:07.123Z,35.57
2019-01-24T15:10:37.429Z,33.67
2019-01-24T15:13:10.589Z,33.20
2019-01-24T15:15:40.903Z,32.17
2019-01-24T15:18:12.027Z,33.07
2019-01-24T15:20:42.978Z,31.53
2019-01-24T15:23:13.222Z,31.07
2019-01-24T15:25:43.541Z,30.03
2019-01-24T15:28:13.745Z,27.07
2019-01-24T15:30:44.385Z,28.50
2019-01-24T15:33:14.599Z,27.97
2019-01-24T15:35:45.205Z,29.03
2019-01-24T15:38:15.893Z,27.83
2019-01-24T15:40:46.160Z,28.20
2019-01-24T15:43:16.377Z,26.90
2019-01-24T15:45:46.593Z,28.37
2019-01-24T15:48:16.843Z,27.47
2019-01-24T15:50:47.040Z,25.73
2019-01-24T15:53:17.307Z,24.60
2019-01-24T15:56:08.347Z,25.50
2019-01-24T15:58:38.668Z,24.27
2019-01-24T16:01:08.875Z,24.97
2019-01-24T16:03:39.096Z,27.20
2019-01-24T16:06:09.282Z,26.03
2019-01-24T16:08:39.839Z,26.27
2019-01-24T16:11:10.056Z,27.03
2019-01-24T16:13:40.276Z,24.80
2019-01-24T16:16:10.515Z,24.37
2019-01-24T16:18:40.759Z,25.73
2019-01-24T16:21:11.001Z,27.10
2019-01-24T16:23:41.396Z,27.97
2019-01-24T16:26:11.658Z,25.97
2019-01-24T16:28:41.889Z,26.93
2019-01-24T16:31:12.592Z,25.07
2019-01-24T16:33:43.171Z,25.70
2019-01-24T16:36:13.413Z,26.20
2019-01-24T16:38:43.633Z,26.70
2019-01-24T16:41:14.218Z,31.90
2019-01-24T16:43:44.476Z,32.00
2019-01-24T16:46:16.369Z,31.40
2019-01-24T16:48:46.690Z,28.93
2019-01-24T16:51:16.854Z,27.55
2019-01-24T16:53:47.143Z,25.40
2019-01-24T16:56:17.743Z,25.90
2019-01-24T16:58:48.034Z,25.60
2019-01-24T17:01:20.723Z,23.03
2019-01-24T17:03:51.340Z,21.83
2019-01-24T17:06:22.173Z,21.53
2019-01-24T17:08:53.775Z,23.17
2019-01-24T17:11:24.423Z,26.47
2019-01-24T17:13:55.371Z,27.00
2019-01-24T17:16:25.575Z,29.90
2019-01-24T17:18:55.717Z,26.77
2019-01-24T17:21:26.309Z,23.37
2019-01-24T17:23:56.843Z,25.60
2019-01-24T17:26:27.390Z,24.20
2019-01-24T17:28:57.995Z,24.63
2019-01-24T17:31:28.324Z,22.67
2019-01-24T17:33:58.823Z,23.13
2019-01-24T17:36:29.445Z,21.50
2019-01-24T17:38:59.665Z,23.23
2019-01-24T17:41:30.305Z,23.93
2019-01-24T17:44:00.962Z,23.03
2019-01-24T17:46:31.673Z,22.73
2019-01-24T17:49:01.922Z,21.03
2019-01-24T17:51:32.158Z,20.20
2019-01-24T17:54:02.387Z,19.53
2019-01-24T17:56:32.599Z,20.90
2019-01-24T17:59:03.006Z,21.67
2019-01-24T18:01:33.185Z,22.13
2019-01-24T18:04:03.442Z,22.40
2019-01-24T18:06:34.021Z,20.37
2019-01-24T18:09:06.676Z,21.60
2019-01-24T18:11:37.210Z,21.13
2019-01-24T18:14:09.879Z,20.77
2019-01-24T18:16:40.512Z,21.20
2019-01-24T18:19:10.642Z,22.70
2019-01-24T18:21:40.935Z,25.43
2019-01-24T18:24:11.191Z,25.97
2019-01-24T18:26:41.773Z,23.03
2019-01-24T18:29:12.345Z,23.50
2019-01-24T18:31:42.636Z,21.23
2019-01-24T18:34:12.811Z,21.07
2019-01-24T18:36:43.065Z,22.13
2019-01-24T18:39:14.184Z,20.83
2019-01-24T18:41:44.825Z,20.03
2019-01-24T18:44:15.402Z,19.87
2019-01-24T18:46:45.699Z,20.43
2019-01-24T18:49:15.962Z,19.43
2019-01-24T18:51:46.199Z,19.80
2019-01-24T18:54:16.409Z,18.53
2019-01-24T18:56:46.606Z,19.73
2019-01-24T18:59:16.865Z,19.87
2019-01-24T19:01:47.357Z,18.27
2019-01-24T19:04:17.600Z,19.97
2019-01-24T19:06:48.261Z,20.67
2019-01-24T19:09:18.464Z,19.27
2019-01-24T19:11:48.972Z,24.10
2019-01-24T19:14:19.542Z,20.00
2019-01-24T19:16:50.409Z,20.33
2019-01-24T19:19:20.564Z,19.60
2019-01-24T19:21:51.504Z,17.83
2019-01-24T19:24:22.037Z,17.00
2019-01-24T19:26:52.267Z,17.03
2019-01-24T19:29:22.490Z,17.83
2019-01-24T19:31:52.718Z,19.13
2019-01-24T19:34:23.071Z,17.40
2019-01-24T19:36:53.254Z,21.37
2019-01-24T19:39:23.487Z,19.23
2019-01-24T19:41:53.768Z,21.03
2019-01-24T19:44:24.353Z,24.17
2019-01-24T19:46:55.195Z,24.53
2019-01-24T19:49:25.448Z,24.43
2019-01-24T19:51:55.748Z,25.10
2019-01-24T19:54:26.390Z,23.90
2019-01-24T19:56:56.948Z,24.03
2019-01-24T19:59:27.527Z,25.80
2019-01-24T20:01:57.786Z,23.67
2019-01-24T20:04:28.336Z,23.83
2019-01-24T20:06:58.909Z,27.00
2019-01-24T20:09:29.164Z,25.43
2019-01-24T20:11:59.355Z,27.53
2019-01-24T20:14:29.599Z,27.37
2019-01-24T20:16:59.835Z,28.13
2019-01-24T20:19:30.054Z,26.27
2019-01-24T20:22:00.336Z,30.93
2019-01-24T20:24:30.685Z,30.80
2019-01-24T20:27:00.907Z,28.33
2019-01-24T20:29:31.631Z,32.20
2019-01-24T20:32:01.877Z,32.43
2019-01-24T20:34:32.240Z,32.27
2019-01-24T20:37:02.776Z,32.70
2019-01-24T20:39:33.425Z,32.87
2019-01-24T20:42:03.998Z,32.07
2019-01-24T20:44:34.356Z,30.53
2019-01-24T20:47:04.569Z,30.77
2019-01-24T20:49:35.265Z,30.37
2019-01-24T20:52:05.821Z,28.87
2019-01-24T20:54:36.538Z,30.23
2019-01-24T20:57:06.811Z,29.43
2019-01-24T20:59:37.139Z,30.73
2019-01-24T21:02:07.815Z,31.87
2019-01-24T21:04:38.333Z,33.10
2019-01-24T21:07:09.131Z,32.90
2019-01-24T21:09:39.481Z,35.40
2019-01-24T21:12:09.779Z,27.50
2019-01-24T21:14:40.055Z,25.57
2019-01-24T21:17:10.389Z,31.63
2019-01-24T21:19:40.721Z,25.57
2019-01-24T21:22:11.087Z,26.60
2019-01-24T21:24:41.467Z,30.60
2019-01-24T21:27:11.765Z,30.30
2019-01-24T21:29:42.122Z,27.70
2019-01-24T21:32:12.424Z,28.37
2019-01-24T21:34:43.884Z,28.50
2019-01-24T21:37:14.522Z,27.90
2019-01-24T21:39:45.300Z,29.37
2019-01-24T21:42:15.645Z,28.33
2019-01-24T21:44:45.953Z,29.47
2019-01-24T21:47:16.227Z,28.17
2019-01-24T21:49:46.538Z,28.50
2019-01-24T21:52:16.781Z,27.90
2019-01-24T21:54:47.179Z,29.77
2019-01-24T21:57:17.441Z,31.30
2019-01-24T21:59:47.750Z,33.33
2019-01-24T22:02:18.100Z,30.60
2019-01-24T22:04:48.350Z,28.50
2019-01-24T22:07:18.642Z,30.03
2019-01-24T22:09:49.226Z,30.73
2019-01-24T22:12:19.550Z,34.50
2019-01-24T22:14:49.829Z,34.57
2019-01-24T22:17:21.205Z,36.17
2019-01-24T22:19:51.506Z,34.20
2019-01-24T22:22:21.801Z,33.03
2019-01-24T22:24:52.114Z,35.13
2019-01-24T22:27:23.154Z,36.77
2019-01-24T22:29:53.430Z,38.27
2019-01-24T22:32:23.734Z,34.90
2019-01-24T22:34:54.439Z,33.83
2019-01-24T22:37:24.698Z,34.40
2019-01-24T22:39:55.410Z,34.43
2019-01-24T22:42:25.692Z,36.43
2019-01-24T22:44:56.022Z,35.73
2019-01-24T22:47:26.312Z,38.13
2019-01-24T22:49:56.562Z,36.93
2019-01-24T22:52:27.399Z,38.17
2019-01-24T22:54:57.671Z,37.83
2019-01-24T22:57:27.951Z,35.63
2019-01-24T22:59:58.199Z,34.67
2019-01-24T23:02:31.018Z,33.97
2019-01-24T23:05:01.266Z,34.03
2019-01-24T23:07:31.645Z,33.43
2019-01-24T23:10:01.890Z,33.77
2019-01-24T23:12:32.134Z,33.70
2019-01-24T23:15:02.778Z,34.07
2019-01-24T23:17:33.044Z,34.83
2019-01-24T23:20:03.388Z,32.67
2019-01-24T23:22:33.983Z,37.30
2019-01-24T23:25:04.820Z,33.70
2019-01-24T23:27:35.073Z,35.73
2019-01-24T23:30:07.590Z,37.77
2019-01-24T23:32:37.884Z,36.30
2019-01-24T23:35:09.317Z,35.73
2019-01-24T23:37:39.585Z,36.07
2019-01-24T23:40:10.126Z,37.70
2019-01-24T23:42:40.394Z,38.93
2019-01-24T23:45:11.727Z,38.90
2019-01-24T23:47:42.087Z,36.70
2019-01-24T23:50:12.994Z,34.40
2019-01-24T23:52:43.660Z,32.13
2019-01-24T23:55:31.802Z,31.77
2019-01-24T23:58:02.050Z,31.97
